sensor_id;sensor_type;location;lat;lon;timestamp;P1;durP1;ratioP1;P2;durP2;ratioP2
14740;SDS011;7462;53.530;9.414;2022-09-21T00:00:50;6.20;;;2.83;;
14740;SDS011;7462;53.530;9.414;2022-09-21T00:03:18;3.87;;;2.27;;
14740;SDS011;7462;53.530;9.414;2022-09-21T00:05:47;3.97;;;2.20;;
14740;SDS011;7462;53.530;9.414;2022-09-21T00:08:15;6.00;;;3.47;;
14740;SDS011;7462;53.530;9.414;2022-09-21T00:10:48;7.73;;;4.37;;
14740;SDS011;7462;53.530;9.414;2022-09-21T00:13:16;10.37;;;5.23;;
14740;SDS011;7462;53.530;9.414;2022-09-21T00:15:46;7.57;;;4.87;;
14740;SDS011;7462;53.530;9.414;2022-09-21T00:18:14;8.43;;;4.13;;
14740;SDS011;7462;53.530;9.414;2022-09-21T00:20:42;5.77;;;3.40;;
14740;SDS011;7462;53.530;9.414;2022-09-21T00:23:11;8.10;;;3.03;;
14740;SDS011;7462;53.530;9.414;2022-09-21T00:25:40;3.97;;;2.40;;
14740;SDS011;7462;53.530;9.414;2022-09-21T00:28:08;3.13;;;2.10;;
14740;SDS011;7462;53.530;9.414;2022-09-21T00:30:36;4.07;;;2.20;;
14740;SDS011;7462;53.530;9.414;2022-09-21T00:33:04;4.27;;;2.10;;
14740;SDS011;7462;53.530;9.414;2022-09-21T00:35:32;7.23;;;2.70;;
14740;SDS011;7462;53.530;9.414;2022-09-21T00:38:01;4.00;;;2.30;;
14740;SDS011;7462;53.530;9.414;2022-09-21T00:40:31;4.73;;;2.00;;
14740;SDS011;7462;53.530;9.414;2022-09-21T00:43:10;4.20;;;2.67;;
14740;SDS011;7462;53.530;9.414;2022-09-21T00:45:42;5.63;;;3.70;;
14740;SDS011;7462;53.530;9.414;2022-09-21T00:48:13;4.97;;;3.57;;
14740;SDS011;7462;53.530;9.414;2022-09-21T00:50:42;6.77;;;4.40;;
14740;SDS011;7462;53.530;9.414;2022-09-21T00:53:15;7.10;;;4.70;;
14740;SDS011;7462;53.530;9.414;2022-09-21T00:55:45;6.40;;;4.77;;
14740;SDS011;7462;53.530;9.414;2022-09-21T00:58:18;6.13;;;4.20;;
14740;SDS011;7462;53.530;9.414;2022-09-21T01:00:50;5.83;;;3.43;;
14740;SDS011;7462;53.530;9.414;2022-09-21T01:03:18;6.90;;;3.17;;
14740;SDS011;7462;53.530;9.414;2022-09-21T01:05:46;3.47;;;2.40;;
14740;SDS011;7462;53.530;9.414;2022-09-21T01:08:15;2.97;;;2.00;;
14740;SDS011;7462;53.530;9.414;2022-09-21T01:13:39;4.03;;;2.33;;
14740;SDS011;7462;53.530;9.414;2022-09-21T01:16:14;4.57;;;2.30;;
14740;SDS011;7462;53.530;9.414;2022-09-21T01:18:48;3.90;;;1.83;;
14740;SDS011;7462;53.530;9.414;2022-09-21T01:21:19;5.03;;;2.00;;
14740;SDS011;7462;53.530;9.414;2022-09-21T01:29:59;3.17;;;2.10;;
14740;SDS011;7462;53.530;9.414;2022-09-21T01:32:31;5.30;;;2.03;;
14740;SDS011;7462;53.530;9.414;2022-09-21T01:35:04;2.40;;;1.80;;
14740;SDS011;7462;53.530;9.414;2022-09-21T01:37:37;3.20;;;1.83;;
14740;SDS011;7462;53.530;9.414;2022-09-21T01:40:10;4.43;;;2.03;;
14740;SDS011;7462;53.530;9.414;2022-09-21T01:42:41;4.47;;;1.60;;
14740;SDS011;7462;53.530;9.414;2022-09-21T01:45:15;2.50;;;1.83;;
14740;SDS011;7462;53.530;9.414;2022-09-21T01:47:47;2.60;;;1.50;;
14740;SDS011;7462;53.530;9.414;2022-09-21T01:50:21;4.23;;;1.90;;
14740;SDS011;7462;53.530;9.414;2022-09-21T01:52:53;2.83;;;1.73;;
14740;SDS011;7462;53.530;9.414;2022-09-21T01:55:26;2.70;;;1.60;;
14740;SDS011;7462;53.530;9.414;2022-09-21T01:58:00;3.13;;;1.70;;
14740;SDS011;7462;53.530;9.414;2022-09-21T02:00:34;2.10;;;1.47;;
14740;SDS011;7462;53.530;9.414;2022-09-21T02:03:07;2.63;;;1.80;;
14740;SDS011;7462;53.530;9.414;2022-09-21T02:05:40;3.10;;;1.53;;
14740;SDS011;7462;53.530;9.414;2022-09-21T02:08:09;4.20;;;1.73;;
14740;SDS011;7462;53.530;9.414;2022-09-21T02:10:38;3.53;;;1.80;;
14740;SDS011;7462;53.530;9.414;2022-09-21T02:13:11;4.57;;;1.83;;
14740;SDS011;7462;53.530;9.414;2022-09-21T02:15:49;4.07;;;1.70;;
14740;SDS011;7462;53.530;9.414;2022-09-21T02:18:34;3.13;;;1.57;;
14740;SDS011;7462;53.530;9.414;2022-09-21T02:21:14;3.30;;;1.70;;
14740;SDS011;7462;53.530;9.414;2022-09-21T02:23:48;2.80;;;1.40;;
14740;SDS011;7462;53.530;9.414;2022-09-21T02:26:23;4.10;;;2.03;;
14740;SDS011;7462;53.530;9.414;2022-09-21T02:29:00;3.37;;;1.47;;
14740;SDS011;7462;53.530;9.414;2022-09-21T02:31:40;2.77;;;1.80;;
14740;SDS011;7462;53.530;9.414;2022-09-21T02:34:15;4.60;;;1.40;;
14740;SDS011;7462;53.530;9.414;2022-09-21T02:36:49;4.10;;;1.80;;
14740;SDS011;7462;53.530;9.414;2022-09-21T02:39:23;4.93;;;1.60;;
14740;SDS011;7462;53.530;9.414;2022-09-21T02:42:00;4.00;;;1.50;;
14740;SDS011;7462;53.530;9.414;2022-09-21T02:44:35;2.47;;;1.97;;
14740;SDS011;7462;53.530;9.414;2022-09-21T02:47:09;4.27;;;1.77;;
14740;SDS011;7462;53.530;9.414;2022-09-21T02:49:43;5.23;;;1.80;;
14740;SDS011;7462;53.530;9.414;2022-09-21T02:52:16;2.43;;;1.80;;
14740;SDS011;7462;53.530;9.414;2022-09-21T02:54:46;2.70;;;2.03;;
14740;SDS011;7462;53.530;9.414;2022-09-21T02:57:17;2.10;;;1.67;;
14740;SDS011;7462;53.530;9.414;2022-09-21T02:59:48;2.00;;;1.50;;
14740;SDS011;7462;53.530;9.414;2022-09-21T03:02:18;6.80;;;1.90;;
14740;SDS011;7462;53.530;9.414;2022-09-21T03:04:46;2.87;;;1.43;;
14740;SDS011;7462;53.530;9.414;2022-09-21T03:07:15;3.33;;;1.60;;
14740;SDS011;7462;53.530;9.414;2022-09-21T03:09:44;4.57;;;1.97;;
14740;SDS011;7462;53.530;9.414;2022-09-21T03:12:12;3.63;;;1.67;;
14740;SDS011;7462;53.530;9.414;2022-09-21T03:14:40;2.03;;;1.70;;
14740;SDS011;7462;53.530;9.414;2022-09-21T03:17:08;3.37;;;1.60;;
14740;SDS011;7462;53.530;9.414;2022-09-21T03:19:38;3.17;;;1.67;;
14740;SDS011;7462;53.530;9.414;2022-09-21T03:22:06;3.63;;;1.87;;
14740;SDS011;7462;53.530;9.414;2022-09-21T03:24:34;3.20;;;1.63;;
14740;SDS011;7462;53.530;9.414;2022-09-21T03:27:14;3.70;;;1.90;;
14740;SDS011;7462;53.530;9.414;2022-09-21T03:29:43;3.90;;;1.57;;
14740;SDS011;7462;53.530;9.414;2022-09-21T03:32:11;3.20;;;1.73;;
14740;SDS011;7462;53.530;9.414;2022-09-21T03:34:42;2.63;;;1.90;;
14740;SDS011;7462;53.530;9.414;2022-09-21T03:37:10;2.40;;;1.40;;
14740;SDS011;7462;53.530;9.414;2022-09-21T03:39:38;4.47;;;1.80;;
14740;SDS011;7462;53.530;9.414;2022-09-21T03:42:06;5.43;;;1.70;;
14740;SDS011;7462;53.530;9.414;2022-09-21T03:44:35;4.43;;;1.87;;
14740;SDS011;7462;53.530;9.414;2022-09-21T03:47:03;5.63;;;1.80;;
14740;SDS011;7462;53.530;9.414;2022-09-21T03:49:32;2.67;;;1.63;;
14740;SDS011;7462;53.530;9.414;2022-09-21T03:52:02;2.67;;;1.93;;
14740;SDS011;7462;53.530;9.414;2022-09-21T03:54:30;2.43;;;1.70;;
14740;SDS011;7462;53.530;9.414;2022-09-21T03:56:59;4.00;;;1.80;;
14740;SDS011;7462;53.530;9.414;2022-09-21T03:59:27;2.67;;;1.87;;
14740;SDS011;7462;53.530;9.414;2022-09-21T04:01:55;3.40;;;1.70;;
14740;SDS011;7462;53.530;9.414;2022-09-21T04:04:23;3.13;;;1.90;;
14740;SDS011;7462;53.530;9.414;2022-09-21T04:06:51;2.93;;;1.83;;
14740;SDS011;7462;53.530;9.414;2022-09-21T04:09:20;5.63;;;1.90;;
14740;SDS011;7462;53.530;9.414;2022-09-21T04:11:48;4.53;;;2.13;;
14740;SDS011;7462;53.530;9.414;2022-09-21T04:14:17;2.67;;;1.60;;
14740;SDS011;7462;53.530;9.414;2022-09-21T04:16:45;1.97;;;1.63;;
14740;SDS011;7462;53.530;9.414;2022-09-21T04:19:13;3.10;;;1.93;;
14740;SDS011;7462;53.530;9.414;2022-09-21T04:21:41;2.80;;;1.67;;
14740;SDS011;7462;53.530;9.414;2022-09-21T04:24:10;8.10;;;1.80;;
14740;SDS011;7462;53.530;9.414;2022-09-21T04:26:39;3.17;;;1.90;;
14740;SDS011;7462;53.530;9.414;2022-09-21T04:29:07;2.30;;;1.63;;
14740;SDS011;7462;53.530;9.414;2022-09-21T04:31:36;2.87;;;1.70;;
14740;SDS011;7462;53.530;9.414;2022-09-21T04:34:04;4.13;;;2.00;;
14740;SDS011;7462;53.530;9.414;2022-09-21T04:36:33;2.87;;;1.77;;
14740;SDS011;7462;53.530;9.414;2022-09-21T04:39:02;3.93;;;1.60;;
14740;SDS011;7462;53.530;9.414;2022-09-21T04:41:31;4.00;;;1.80;;
14740;SDS011;7462;53.530;9.414;2022-09-21T04:44:00;3.70;;;1.80;;
14740;SDS011;7462;53.530;9.414;2022-09-21T04:46:28;3.53;;;2.00;;
14740;SDS011;7462;53.530;9.414;2022-09-21T04:48:57;3.60;;;2.20;;
14740;SDS011;7462;53.530;9.414;2022-09-21T04:51:25;5.93;;;2.10;;
14740;SDS011;7462;53.530;9.414;2022-09-21T04:53:53;4.03;;;2.37;;
14740;SDS011;7462;53.530;9.414;2022-09-21T04:56:21;2.87;;;1.80;;
14740;SDS011;7462;53.530;9.414;2022-09-21T04:58:49;3.67;;;1.87;;
14740;SDS011;7462;53.530;9.414;2022-09-21T05:01:18;5.27;;;2.30;;
14740;SDS011;7462;53.530;9.414;2022-09-21T05:03:46;3.87;;;2.00;;
14740;SDS011;7462;53.530;9.414;2022-09-21T05:06:14;2.73;;;1.73;;
14740;SDS011;7462;53.530;9.414;2022-09-21T05:08:42;3.20;;;1.90;;
14740;SDS011;7462;53.530;9.414;2022-09-21T05:11:28;4.30;;;1.87;;
14740;SDS011;7462;53.530;9.414;2022-09-21T05:13:56;3.03;;;2.00;;
14740;SDS011;7462;53.530;9.414;2022-09-21T05:16:25;4.77;;;2.10;;
14740;SDS011;7462;53.530;9.414;2022-09-21T05:18:53;3.70;;;1.67;;
14740;SDS011;7462;53.530;9.414;2022-09-21T05:21:21;3.57;;;1.90;;
14740;SDS011;7462;53.530;9.414;2022-09-21T05:23:49;3.33;;;2.00;;
14740;SDS011;7462;53.530;9.414;2022-09-21T05:26:18;3.73;;;1.90;;
14740;SDS011;7462;53.530;9.414;2022-09-21T05:28:46;2.47;;;1.70;;
14740;SDS011;7462;53.530;9.414;2022-09-21T05:31:21;2.77;;;1.80;;
14740;SDS011;7462;53.530;9.414;2022-09-21T05:34:02;3.30;;;1.90;;
14740;SDS011;7462;53.530;9.414;2022-09-21T05:36:40;3.00;;;1.87;;
14740;SDS011;7462;53.530;9.414;2022-09-21T05:39:15;3.30;;;1.80;;
14740;SDS011;7462;53.530;9.414;2022-09-21T05:41:43;5.33;;;1.97;;
14740;SDS011;7462;53.530;9.414;2022-09-21T05:44:12;3.40;;;2.23;;
14740;SDS011;7462;53.530;9.414;2022-09-21T05:46:43;4.60;;;2.23;;
14740;SDS011;7462;53.530;9.414;2022-09-21T05:49:21;3.03;;;2.10;;
14740;SDS011;7462;53.530;9.414;2022-09-21T05:52:01;5.17;;;2.63;;
14740;SDS011;7462;53.530;9.414;2022-09-21T05:54:38;6.17;;;2.83;;
14740;SDS011;7462;53.530;9.414;2022-09-21T05:57:17;5.53;;;2.53;;
14740;SDS011;7462;53.530;9.414;2022-09-21T05:59:59;3.93;;;2.60;;
14740;SDS011;7462;53.530;9.414;2022-09-21T06:02:46;5.03;;;2.80;;
14740;SDS011;7462;53.530;9.414;2022-09-21T06:05:42;4.23;;;2.83;;
14740;SDS011;7462;53.530;9.414;2022-09-21T06:08:11;7.30;;;2.77;;
14740;SDS011;7462;53.530;9.414;2022-09-21T06:10:39;3.20;;;2.30;;
14740;SDS011;7462;53.530;9.414;2022-09-21T06:13:07;6.43;;;2.97;;
14740;SDS011;7462;53.530;9.414;2022-09-21T06:15:35;4.70;;;2.80;;
14740;SDS011;7462;53.530;9.414;2022-09-21T06:18:05;5.07;;;3.23;;
14740;SDS011;7462;53.530;9.414;2022-09-21T06:20:34;3.80;;;3.30;;
14740;SDS011;7462;53.530;9.414;2022-09-21T06:23:03;4.07;;;3.67;;
14740;SDS011;7462;53.530;9.414;2022-09-21T06:25:32;8.07;;;5.17;;
14740;SDS011;7462;53.530;9.414;2022-09-21T06:28:00;9.07;;;5.00;;
14740;SDS011;7462;53.530;9.414;2022-09-21T06:30:30;8.80;;;5.23;;
14740;SDS011;7462;53.530;9.414;2022-09-21T06:33:00;6.03;;;4.97;;
14740;SDS011;7462;53.530;9.414;2022-09-21T06:35:30;8.23;;;5.20;;
14740;SDS011;7462;53.530;9.414;2022-09-21T06:38:00;6.67;;;4.70;;
14740;SDS011;7462;53.530;9.414;2022-09-21T06:40:31;10.70;;;4.80;;
14740;SDS011;7462;53.530;9.414;2022-09-21T06:43:02;6.57;;;4.47;;
14740;SDS011;7462;53.530;9.414;2022-09-21T06:45:31;7.70;;;4.17;;
14740;SDS011;7462;53.530;9.414;2022-09-21T06:47:59;8.00;;;4.50;;
14740;SDS011;7462;53.530;9.414;2022-09-21T06:50:27;9.10;;;4.33;;
14740;SDS011;7462;53.530;9.414;2022-09-21T06:52:59;8.47;;;5.23;;
14740;SDS011;7462;53.530;9.414;2022-09-21T06:55:27;8.03;;;4.90;;
14740;SDS011;7462;53.530;9.414;2022-09-21T06:57:58;9.93;;;4.70;;
14740;SDS011;7462;53.530;9.414;2022-09-21T07:00:31;10.27;;;4.83;;
14740;SDS011;7462;53.530;9.414;2022-09-21T07:02:59;7.50;;;4.40;;
14740;SDS011;7462;53.530;9.414;2022-09-21T07:05:27;9.27;;;4.70;;
14740;SDS011;7462;53.530;9.414;2022-09-21T07:07:56;6.57;;;4.20;;
14740;SDS011;7462;53.530;9.414;2022-09-21T07:10:26;6.73;;;4.80;;
14740;SDS011;7462;53.530;9.414;2022-09-21T07:12:54;7.47;;;4.30;;
14740;SDS011;7462;53.530;9.414;2022-09-21T07:15:22;4.87;;;3.83;;
14740;SDS011;7462;53.530;9.414;2022-09-21T07:17:55;6.23;;;4.37;;
14740;SDS011;7462;53.530;9.414;2022-09-21T07:20:31;5.83;;;3.97;;
14740;SDS011;7462;53.530;9.414;2022-09-21T07:22:59;6.70;;;4.17;;
14740;SDS011;7462;53.530;9.414;2022-09-21T07:25:28;9.40;;;4.57;;
14740;SDS011;7462;53.530;9.414;2022-09-21T07:27:58;7.30;;;4.30;;
14740;SDS011;7462;53.530;9.414;2022-09-21T07:30:26;10.30;;;3.63;;
14740;SDS011;7462;53.530;9.414;2022-09-21T07:32:54;6.93;;;3.73;;
14740;SDS011;7462;53.530;9.414;2022-09-21T07:35:23;7.80;;;4.13;;
14740;SDS011;7462;53.530;9.414;2022-09-21T07:37:51;5.33;;;3.70;;
14740;SDS011;7462;53.530;9.414;2022-09-21T07:40:21;6.80;;;4.00;;
14740;SDS011;7462;53.530;9.414;2022-09-21T07:42:55;6.50;;;3.70;;
14740;SDS011;7462;53.530;9.414;2022-09-21T07:45:24;5.17;;;3.40;;
14740;SDS011;7462;53.530;9.414;2022-09-21T07:47:52;5.73;;;3.43;;
14740;SDS011;7462;53.530;9.414;2022-09-21T07:50:22;6.13;;;3.20;;
14740;SDS011;7462;53.530;9.414;2022-09-21T07:52:50;8.87;;;3.90;;
14740;SDS011;7462;53.530;9.414;2022-09-21T07:55:18;6.17;;;3.20;;
14740;SDS011;7462;53.530;9.414;2022-09-21T07:57:48;6.30;;;3.77;;
14740;SDS011;7462;53.530;9.414;2022-09-21T08:00:35;5.47;;;3.17;;
14740;SDS011;7462;53.530;9.414;2022-09-21T08:03:04;5.17;;;4.07;;
14740;SDS011;7462;53.530;9.414;2022-09-21T08:05:32;6.80;;;3.97;;
14740;SDS011;7462;53.530;9.414;2022-09-21T08:08:00;6.00;;;3.50;;
14740;SDS011;7462;53.530;9.414;2022-09-21T08:10:29;4.90;;;3.53;;
14740;SDS011;7462;53.530;9.414;2022-09-21T08:12:58;7.67;;;3.73;;
14740;SDS011;7462;53.530;9.414;2022-09-21T08:15:26;5.00;;;3.63;;
14740;SDS011;7462;53.530;9.414;2022-09-21T08:18:15;5.80;;;3.17;;
14740;SDS011;7462;53.530;9.414;2022-09-21T08:20:43;4.57;;;3.57;;
14740;SDS011;7462;53.530;9.414;2022-09-21T08:23:20;3.77;;;2.60;;
14740;SDS011;7462;53.530;9.414;2022-09-21T08:25:49;6.90;;;3.30;;
14740;SDS011;7462;53.530;9.414;2022-09-21T08:28:17;6.77;;;3.60;;
14740;SDS011;7462;53.530;9.414;2022-09-21T08:30:45;6.60;;;3.17;;
14740;SDS011;7462;53.530;9.414;2022-09-21T08:33:13;8.20;;;3.53;;
14740;SDS011;7462;53.530;9.414;2022-09-21T08:35:42;7.53;;;3.87;;
14740;SDS011;7462;53.530;9.414;2022-09-21T08:38:17;6.87;;;3.40;;
14740;SDS011;7462;53.530;9.414;2022-09-21T08:40:45;7.83;;;3.53;;
14740;SDS011;7462;53.530;9.414;2022-09-21T08:43:15;9.90;;;3.70;;
14740;SDS011;7462;53.530;9.414;2022-09-21T08:45:46;4.90;;;3.00;;
14740;SDS011;7462;53.530;9.414;2022-09-21T08:48:17;6.20;;;3.10;;
14740;SDS011;7462;53.530;9.414;2022-09-21T08:50:56;7.23;;;3.20;;
14740;SDS011;7462;53.530;9.414;2022-09-21T08:53:28;5.90;;;2.50;;
14740;SDS011;7462;53.530;9.414;2022-09-21T08:56:00;3.50;;;2.07;;
14740;SDS011;7462;53.530;9.414;2022-09-21T08:58:29;6.03;;;2.37;;
14740;SDS011;7462;53.530;9.414;2022-09-21T09:01:04;6.00;;;2.20;;
14740;SDS011;7462;53.530;9.414;2022-09-21T09:03:50;4.67;;;2.07;;
14740;SDS011;7462;53.530;9.414;2022-09-21T09:06:30;4.03;;;1.80;;
14740;SDS011;7462;53.530;9.414;2022-09-21T09:09:09;5.33;;;1.87;;
14740;SDS011;7462;53.530;9.414;2022-09-21T09:11:48;4.43;;;2.10;;
14740;SDS011;7462;53.530;9.414;2022-09-21T09:14:39;3.73;;;2.17;;
14740;SDS011;7462;53.530;9.414;2022-09-21T09:17:23;4.10;;;2.10;;
14740;SDS011;7462;53.530;9.414;2022-09-21T09:20:02;4.13;;;1.60;;
14740;SDS011;7462;53.530;9.414;2022-09-21T09:22:35;3.83;;;1.50;;
14740;SDS011;7462;53.530;9.414;2022-09-21T09:25:12;5.87;;;1.70;;
14740;SDS011;7462;53.530;9.414;2022-09-21T09:27:45;3.53;;;1.57;;
14740;SDS011;7462;53.530;9.414;2022-09-21T09:30:15;3.93;;;1.70;;
14740;SDS011;7462;53.530;9.414;2022-09-21T09:32:46;4.57;;;1.60;;
14740;SDS011;7462;53.530;9.414;2022-09-21T09:35:23;5.57;;;1.77;;
14740;SDS011;7462;53.530;9.414;2022-09-21T09:37:55;6.07;;;2.03;;
14740;SDS011;7462;53.530;9.414;2022-09-21T09:40:34;5.33;;;1.80;;
14740;SDS011;7462;53.530;9.414;2022-09-21T09:43:17;4.47;;;1.60;;
14740;SDS011;7462;53.530;9.414;2022-09-21T09:46:01;3.83;;;1.30;;
14740;SDS011;7462;53.530;9.414;2022-09-21T09:48:46;3.53;;;1.40;;
14740;SDS011;7462;53.530;9.414;2022-09-21T09:51:23;2.93;;;1.30;;
14740;SDS011;7462;53.530;9.414;2022-09-21T09:53:53;3.70;;;1.20;;
14740;SDS011;7462;53.530;9.414;2022-09-21T09:56:25;5.97;;;1.70;;
14740;SDS011;7462;53.530;9.414;2022-09-21T09:58:55;5.00;;;1.90;;
14740;SDS011;7462;53.530;9.414;2022-09-21T10:01:35;4.17;;;1.20;;
14740;SDS011;7462;53.530;9.414;2022-09-21T10:04:08;3.83;;;1.53;;
14740;SDS011;7462;53.530;9.414;2022-09-21T10:06:38;3.60;;;1.20;;
14740;SDS011;7462;53.530;9.414;2022-09-21T10:09:19;5.80;;;0.93;;
14740;SDS011;7462;53.530;9.414;2022-09-21T10:11:52;3.33;;;1.27;;
14740;SDS011;7462;53.530;9.414;2022-09-21T10:14:23;6.23;;;1.17;;
14740;SDS011;7462;53.530;9.414;2022-09-21T10:16:54;3.53;;;1.03;;
14740;SDS011;7462;53.530;9.414;2022-09-21T10:19:26;2.73;;;0.90;;
14740;SDS011;7462;53.530;9.414;2022-09-21T10:21:57;2.23;;;0.90;;
14740;SDS011;7462;53.530;9.414;2022-09-21T10:24:27;2.70;;;0.83;;
14740;SDS011;7462;53.530;9.414;2022-09-21T10:27:02;3.70;;;1.10;;
14740;SDS011;7462;53.530;9.414;2022-09-21T10:29:39;2.07;;;0.80;;
14740;SDS011;7462;53.530;9.414;2022-09-21T10:32:19;1.83;;;0.70;;
14740;SDS011;7462;53.530;9.414;2022-09-21T10:35:11;4.03;;;0.90;;
14740;SDS011;7462;53.530;9.414;2022-09-21T10:37:45;3.63;;;0.93;;
14740;SDS011;7462;53.530;9.414;2022-09-21T10:40:23;3.80;;;0.90;;
14740;SDS011;7462;53.530;9.414;2022-09-21T10:42:53;2.20;;;0.80;;
14740;SDS011;7462;53.530;9.414;2022-09-21T10:45:24;2.47;;;0.87;;
14740;SDS011;7462;53.530;9.414;2022-09-21T10:47:54;2.93;;;1.33;;
14740;SDS011;7462;53.530;9.414;2022-09-21T10:50:25;3.23;;;0.93;;
14740;SDS011;7462;53.530;9.414;2022-09-21T10:52:57;2.73;;;0.90;;
14740;SDS011;7462;53.530;9.414;2022-09-21T10:55:28;2.37;;;0.97;;
14740;SDS011;7462;53.530;9.414;2022-09-21T10:57:57;2.50;;;1.10;;
14740;SDS011;7462;53.530;9.414;2022-09-21T11:00:30;2.40;;;0.80;;
14740;SDS011;7462;53.530;9.414;2022-09-21T11:03:25;3.57;;;0.93;;
14740;SDS011;7462;53.530;9.414;2022-09-21T11:06:05;2.20;;;1.00;;
14740;SDS011;7462;53.530;9.414;2022-09-21T11:08:40;2.70;;;1.10;;
14740;SDS011;7462;53.530;9.414;2022-09-21T11:11:18;1.90;;;0.80;;
14740;SDS011;7462;53.530;9.414;2022-09-21T11:13:59;1.93;;;0.80;;
14740;SDS011;7462;53.530;9.414;2022-09-21T11:16:38;3.83;;;0.97;;
14740;SDS011;7462;53.530;9.414;2022-09-21T11:19:12;1.83;;;0.80;;
14740;SDS011;7462;53.530;9.414;2022-09-21T11:21:49;1.73;;;0.80;;
14740;SDS011;7462;53.530;9.414;2022-09-21T11:24:34;2.17;;;0.90;;
14740;SDS011;7462;53.530;9.414;2022-09-21T11:27:09;3.43;;;1.00;;
14740;SDS011;7462;53.530;9.414;2022-09-21T11:29:45;2.93;;;0.87;;
14740;SDS011;7462;53.530;9.414;2022-09-21T11:32:28;2.07;;;0.80;;
14740;SDS011;7462;53.530;9.414;2022-09-21T11:37:56;1.67;;;1.00;;
14740;SDS011;7462;53.530;9.414;2022-09-21T11:40:37;1.63;;;0.70;;
14740;SDS011;7462;53.530;9.414;2022-09-21T11:43:28;3.03;;;1.00;;
14740;SDS011;7462;53.530;9.414;2022-09-21T11:46:13;1.63;;;0.60;;
14740;SDS011;7462;53.530;9.414;2022-09-21T11:48:59;2.00;;;0.90;;
14740;SDS011;7462;53.530;9.414;2022-09-21T11:51:42;2.07;;;0.80;;
14740;SDS011;7462;53.530;9.414;2022-09-21T11:54:43;2.83;;;0.83;;
14740;SDS011;7462;53.530;9.414;2022-09-21T11:57:25;3.37;;;0.80;;
14740;SDS011;7462;53.530;9.414;2022-09-21T12:00:04;1.83;;;0.80;;
14740;SDS011;7462;53.530;9.414;2022-09-21T12:06:05;1.83;;;0.70;;
14740;SDS011;7462;53.530;9.414;2022-09-21T12:08:58;2.07;;;0.80;;
14740;SDS011;7462;53.530;9.414;2022-09-21T12:11:48;2.10;;;0.73;;
14740;SDS011;7462;53.530;9.414;2022-09-21T12:14:26;3.03;;;0.80;;
14740;SDS011;7462;53.530;9.414;2022-09-21T12:17:08;2.33;;;0.87;;
14740;SDS011;7462;53.530;9.414;2022-09-21T12:19:44;4.33;;;1.33;;
14740;SDS011;7462;53.530;9.414;2022-09-21T12:22:17;2.23;;;0.60;;
14740;SDS011;7462;53.530;9.414;2022-09-21T12:24:48;1.70;;;0.60;;
14740;SDS011;7462;53.530;9.414;2022-09-21T12:27:22;1.60;;;0.60;;
14740;SDS011;7462;53.530;9.414;2022-09-21T12:29:56;2.07;;;0.90;;
14740;SDS011;7462;53.530;9.414;2022-09-21T12:32:32;4.17;;;0.80;;
14740;SDS011;7462;53.530;9.414;2022-09-21T12:35:13;1.67;;;0.70;;
14740;SDS011;7462;53.530;9.414;2022-09-21T12:37:44;1.63;;;0.80;;
14740;SDS011;7462;53.530;9.414;2022-09-21T12:40:17;1.53;;;0.70;;
14740;SDS011;7462;53.530;9.414;2022-09-21T12:42:54;2.23;;;0.80;;
14740;SDS011;7462;53.530;9.414;2022-09-21T12:45:31;2.33;;;0.63;;
14740;SDS011;7462;53.530;9.414;2022-09-21T12:48:04;2.23;;;0.63;;
14740;SDS011;7462;53.530;9.414;2022-09-21T12:50:36;3.17;;;0.93;;
14740;SDS011;7462;53.530;9.414;2022-09-21T12:53:09;1.90;;;0.70;;
14740;SDS011;7462;53.530;9.414;2022-09-21T12:55:47;1.93;;;0.57;;
14740;SDS011;7462;53.530;9.414;2022-09-21T12:58:26;2.60;;;0.60;;
14740;SDS011;7462;53.530;9.414;2022-09-21T13:01:14;2.40;;;0.60;;
14740;SDS011;7462;53.530;9.414;2022-09-21T13:03:56;1.67;;;0.80;;
14740;SDS011;7462;53.530;9.414;2022-09-21T13:06:37;1.90;;;0.70;;
14740;SDS011;7462;53.530;9.414;2022-09-21T13:09:20;1.87;;;0.67;;
14740;SDS011;7462;53.530;9.414;2022-09-21T13:11:50;1.57;;;0.60;;
14740;SDS011;7462;53.530;9.414;2022-09-21T13:14:21;2.57;;;0.80;;
14740;SDS011;7462;53.530;9.414;2022-09-21T13:16:56;0.60;;;0.50;;
14740;SDS011;7462;53.530;9.414;2022-09-21T13:19:28;2.20;;;0.60;;
14740;SDS011;7462;53.530;9.414;2022-09-21T13:22:10;1.90;;;0.50;;
14740;SDS011;7462;53.530;9.414;2022-09-21T13:24:46;1.70;;;0.70;;
14740;SDS011;7462;53.530;9.414;2022-09-21T13:30:35;1.13;;;0.50;;
14740;SDS011;7462;53.530;9.414;2022-09-21T13:36:02;4.40;;;0.67;;
14740;SDS011;7462;53.530;9.414;2022-09-21T13:38:55;2.33;;;0.80;;
14740;SDS011;7462;53.530;9.414;2022-09-21T13:41:31;1.53;;;0.60;;
14740;SDS011;7462;53.530;9.414;2022-09-21T13:44:21;1.20;;;0.47;;
14740;SDS011;7462;53.530;9.414;2022-09-21T13:47:07;2.70;;;0.63;;
14740;SDS011;7462;53.530;9.414;2022-09-21T13:52:27;1.43;;;0.50;;
14740;SDS011;7462;53.530;9.414;2022-09-21T13:55:00;1.43;;;0.60;;
14740;SDS011;7462;53.530;9.414;2022-09-21T13:57:33;1.60;;;0.60;;
14740;SDS011;7462;53.530;9.414;2022-09-21T14:00:07;1.33;;;0.57;;
14740;SDS011;7462;53.530;9.414;2022-09-21T14:02:55;2.53;;;0.50;;
14740;SDS011;7462;53.530;9.414;2022-09-21T14:05:28;1.40;;;0.60;;
14740;SDS011;7462;53.530;9.414;2022-09-21T14:08:01;1.30;;;0.60;;
14740;SDS011;7462;53.530;9.414;2022-09-21T14:10:32;1.17;;;0.43;;
14740;SDS011;7462;53.530;9.414;2022-09-21T14:13:03;1.33;;;0.60;;
14740;SDS011;7462;53.530;9.414;2022-09-21T14:15:49;1.00;;;0.57;;
14740;SDS011;7462;53.530;9.414;2022-09-21T14:21:12;1.40;;;0.50;;
14740;SDS011;7462;53.530;9.414;2022-09-21T14:26:50;1.90;;;0.50;;
14740;SDS011;7462;53.530;9.414;2022-09-21T14:29:30;2.87;;;0.70;;
14740;SDS011;7462;53.530;9.414;2022-09-21T14:32:06;1.83;;;0.70;;
14740;SDS011;7462;53.530;9.414;2022-09-21T14:34:44;2.23;;;0.80;;
14740;SDS011;7462;53.530;9.414;2022-09-21T14:37:22;1.87;;;0.60;;
14740;SDS011;7462;53.530;9.414;2022-09-21T14:39:54;1.63;;;0.60;;
14740;SDS011;7462;53.530;9.414;2022-09-21T14:42:24;2.40;;;0.60;;
14740;SDS011;7462;53.530;9.414;2022-09-21T14:44:55;1.40;;;0.70;;
14740;SDS011;7462;53.530;9.414;2022-09-21T14:47:32;1.90;;;0.90;;
14740;SDS011;7462;53.530;9.414;2022-09-21T14:50:19;1.13;;;0.57;;
14740;SDS011;7462;53.530;9.414;2022-09-21T14:53:07;3.37;;;0.90;;
14740;SDS011;7462;53.530;9.414;2022-09-21T14:56:01;1.90;;;0.70;;
14740;SDS011;7462;53.530;9.414;2022-09-21T14:58:51;3.37;;;0.90;;
14740;SDS011;7462;53.530;9.414;2022-09-21T15:01:36;2.33;;;0.60;;
14740;SDS011;7462;53.530;9.414;2022-09-21T15:04:20;2.80;;;0.70;;
14740;SDS011;7462;53.530;9.414;2022-09-21T15:06:59;1.13;;;0.57;;
14740;SDS011;7462;53.530;9.414;2022-09-21T15:09:59;2.50;;;0.80;;
14740;SDS011;7462;53.530;9.414;2022-09-21T15:13:07;2.83;;;0.60;;
14740;SDS011;7462;53.530;9.414;2022-09-21T15:15:56;1.40;;;0.70;;
14740;SDS011;7462;53.530;9.414;2022-09-21T15:18:38;0.80;;;0.50;;
14740;SDS011;7462;53.530;9.414;2022-09-21T15:21:15;2.33;;;0.60;;
14740;SDS011;7462;53.530;9.414;2022-09-21T15:23:47;3.97;;;0.70;;
14740;SDS011;7462;53.530;9.414;2022-09-21T15:26:21;2.70;;;0.83;;
14740;SDS011;7462;53.530;9.414;2022-09-21T15:28:55;2.13;;;0.73;;
14740;SDS011;7462;53.530;9.414;2022-09-21T15:31:40;1.10;;;0.60;;
14740;SDS011;7462;53.530;9.414;2022-09-21T15:34:08;1.10;;;0.50;;
14740;SDS011;7462;53.530;9.414;2022-09-21T15:36:41;0.83;;;0.57;;
14740;SDS011;7462;53.530;9.414;2022-09-21T15:39:19;3.60;;;1.00;;
14740;SDS011;7462;53.530;9.414;2022-09-21T15:41:53;1.53;;;0.53;;
14740;SDS011;7462;53.530;9.414;2022-09-21T15:44:46;0.90;;;0.60;;
14740;SDS011;7462;53.530;9.414;2022-09-21T15:47:17;1.50;;;0.60;;
14740;SDS011;7462;53.530;9.414;2022-09-21T15:49:47;1.43;;;0.50;;
14740;SDS011;7462;53.530;9.414;2022-09-21T15:52:19;2.03;;;0.50;;
14740;SDS011;7462;53.530;9.414;2022-09-21T15:54:52;1.13;;;0.43;;
14740;SDS011;7462;53.530;9.414;2022-09-21T15:57:29;1.30;;;0.50;;
14740;SDS011;7462;53.530;9.414;2022-09-21T16:00:06;1.27;;;0.50;;
14740;SDS011;7462;53.530;9.414;2022-09-21T16:02:49;1.47;;;0.60;;
14740;SDS011;7462;53.530;9.414;2022-09-21T16:05:23;2.60;;;0.80;;
14740;SDS011;7462;53.530;9.414;2022-09-21T16:08:03;1.53;;;0.67;;
14740;SDS011;7462;53.530;9.414;2022-09-21T16:10:34;1.90;;;0.70;;